Time;durP1;ratioP1;P1;durP2;ratioP2;P2;SDS_P1;SDS_P2;PMS_P1;PMS_P2;Temp;Humidity;BMP_temperature;BMP_pressure;BME280_temperature;BME280_humidity;BME280_pressure;Samples;Min_cycle;Max_cycle;Signal;HPM_P1;HPM_P2
2021/05/05 00:01:14;;;;;;;;;;;;;;;;;;5011610;28;19912;-61
2021/05/05 00:03:40;;;;;;;;;;;;;;;;;;5009848;28;19909;-62
2021/05/05 00:06:06;;;;;;;;;;;461.70;1433.60;;;;;;5012478;28;19956;-61
2021/05/05 00:08:32;;;;;;;;;;;461.70;1433.60;;;;;;5007175;28;19971;-62
2021/05/05 00:10:58;;;;;;;;;;;461.50;1433.60;;;;;;5004695;28;19906;-61
2021/05/05 00:13:23;;;;;;;;;;;461.50;1433.60;;;;;;5008744;28;19984;-63
2021/05/05 00:15:49;;;;;;;;;;;461.50;1433.60;;;;;;5008516;28;20017;-62
2021/05/05 00:18:14;;;;;;;;;;;461.50;1459.20;;;;;;5007861;28;19921;-63
2021/05/05 00:20:40;;;;;;;;;;;;;;;;;;5008924;28;19916;-62
2021/05/05 00:23:06;;;;;;;;;;;;;;;;;;5007894;28;19952;-63
2021/05/05 00:25:32;;;;;;;;;;;;;;;;;;4993456;28;20264;-62
2021/05/05 00:27:58;;;;;;;;;;;;;;;;;;5012684;28;19910;-63
2021/05/05 00:30:24;;;;;;;;;;;;;;;;;;4998138;28;19942;-62
2021/05/05 00:32:50;;;;;;;;;;;;;;;;;;5004648;28;19964;-60
2021/05/05 00:35:16;;;;;;;;;;;;;;;;;;5012499;28;19913;-63
2021/05/05 00:37:42;;;;;;;;;;;;;;;;;;5014683;28;19994;-62
2021/05/05 00:40:08;;;;;;;;;;;;;;;;;;5009729;28;19910;-63
2021/05/05 00:42:34;;;;;;;;;;;;;;;;;;5018989;28;19910;-63
2021/05/05 00:45:00;;;;;;;;;;;;;;;;;;5018466;28;19913;-65
2021/05/05 00:47:26;;;;;;;;;;;;;;;;;;5010696;28;19937;-62
2021/05/05 00:49:52;;;;;;;;;;;;;;;;;;5001828;28;20327;-65
2021/05/05 00:52:17;;;;;;;;;;;461.60;1408.00;;;;;;5014104;28;19913;-63
2021/05/05 00:54:43;;;;;;;;;;;461.50;1408.00;;;;;;5015249;28;20394;-63
2021/05/05 00:57:09;;;;;;;;;;;461.70;1382.40;;;;;;4989453;28;20004;-62
2021/05/05 00:59:34;;;;;;;;;;;461.70;1382.40;;;;;;4985139;28;20282;-62
2021/05/05 01:02:00;;;;;;;;;;;461.70;1356.80;;;;;;5006176;28;19996;-62
2021/05/05 01:04:26;;;;;;;;;;;486.40;1356.80;;;;;;4999959;28;19909;-62
2021/05/05 01:06:52;;;;;;;;;;;461.70;1356.80;;;;;;5009164;28;19937;-63
2021/05/05 01:09:17;;;;;;;;;;;461.70;1356.80;;;;;;5017294;28;19980;-64
2021/05/05 01:11:43;;;;;;;;;;;461.70;1356.80;;;;;;5013753;28;19906;-62
2021/05/05 01:14:09;;;;;;;;;;;486.40;1331.20;;;;;;5010196;28;19909;-62
2021/05/05 01:16:34;;;;;;;;;;;486.50;1331.20;;;;;;4992264;28;19910;-62
2021/05/05 01:19:00;;;;;;;;;;;486.50;1331.20;;;;;;5007866;28;19906;-63
2021/05/05 01:21:25;;;;;;;;;;;486.50;1331.20;;;;;;5007323;28;19925;-63
2021/05/05 01:23:51;;;;;;;;;;;486.40;1331.20;;;;;;5013321;28;19914;-63
2021/05/05 01:26:17;;;;;;;;;;;461.70;1356.80;;;;;;5010459;28;19937;-62
2021/05/05 01:28:43;;;;;;;;;;;461.60;1356.80;;;;;;5022221;28;19917;-62
2021/05/05 01:31:10;;;;;;;;;;;461.50;1382.40;;;;;;5010248;28;19941;-63
2021/05/05 01:33:37;;;;;;;;;;;461.70;1331.20;;;;;;5005288;28;19961;-63
2021/05/05 01:36:02;;;;;;;;;;;486.40;1331.20;;;;;;5007981;28;19914;-69
2021/05/05 01:38:28;;;;;;;;;;;461.70;1331.20;;;;;;5008888;28;19963;-63
2021/05/05 01:40:54;;;;;;;;;;;486.40;1331.20;;;;;;5013770;28;19986;-67
2021/05/05 01:43:19;;;;;;;;;;;486.40;1305.60;;;;;;5022504;28;20055;-63
2021/05/05 01:45:45;;;;;;;;;;;486.50;1305.60;;;;;;5009765;28;19913;-62
2021/05/05 01:48:11;;;;;;;;;;;486.40;1305.60;;;;;;5010120;28;20363;-61
2021/05/05 01:50:37;;;;;;;;;;;461.70;1305.60;;;;;;5012948;28;19909;-64
2021/05/05 01:53:02;;;;;;;;;;;461.40;1356.80;;;;;;5007099;28;20052;-62
2021/05/05 01:55:28;;;;;;;;;;;461.60;1331.20;;;;;;5009846;28;19909;-61
2021/05/05 01:57:54;;;;;;;;;;;461.70;1331.20;;;;;;5007975;28;19921;-62
2021/05/05 02:00:23;;;;;;;;;;;461.60;1356.80;;;;;;5010130;28;19917;-63
2021/05/05 02:02:49;;;;;;;;;;;461.40;1356.80;;;;;;5000461;28;19910;-63
2021/05/05 02:05:15;;;;;;;;;;;461.50;1356.80;;;;;;5011403;28;19916;-66
2021/05/05 02:07:41;;;;;;;;;;;461.60;1356.80;;;;;;5026935;28;19909;-62
2021/05/05 02:10:08;;;;;;;;;;;461.50;1356.80;;;;;;5005740;28;20431;-67
2021/05/05 02:12:33;;;;;;;;;;;;;;;;;;5005950;28;20352;-71
2021/05/05 02:14:59;;;;;;;;;;;;;;;;;;5015955;28;19913;-68
2021/05/05 02:17:25;;;;;;;;;;;461.10;1408.00;;;;;;5025173;28;19909;-68
2021/05/05 02:19:51;;;;;;;;;;;461.10;1408.00;;;;;;5013557;28;19912;-69
2021/05/05 02:22:16;;;;;;;;;;;461.10;1433.60;;;;;;5026842;28;20287;-70
2021/05/05 02:24:42;;;;;;;;;;;;;;;;;;5025906;28;19932;-71
2021/05/05 02:27:08;;;;;;;;;;;;;;;;;;5027548;28;19912;-67
2021/05/05 02:29:34;;;;;;;;;;;;;;;;;;5027267;28;19917;-68
2021/05/05 02:32:00;;;;;;;;;;;;;;;;;;5024735;28;19955;-68
2021/05/05 02:34:26;;;;;;;;;;;;;;;;;;5024204;28;20298;-68
2021/05/05 02:36:52;;;;;;;;;;;;;;;;;;5020119;28;20314;-74
2021/05/05 02:39:18;;;;;;;;;;;;;;;;;;5004785;28;19917;-69
2021/05/05 02:41:44;;;;;;;;;;;;;;;;;;5026756;28;20043;-70
2021/05/05 02:44:10;;;;;;;;;;;;;;;;;;5021328;28;19940;-71
2021/05/05 02:46:36;;;;;;;;;;;;;;;;;;5029310;28;19982;-71
2021/05/05 02:49:02;;;;;;;;;;;;;;;;;;5028105;28;19924;-71
2021/05/05 02:51:28;;;;;;;;;;;;;;;;;;5029435;28;19909;-71
2021/05/05 02:53:53;;;;;;;;;;;;;;;;;;5019825;28;19921;-72
2021/05/05 02:56:19;;;;;;;;;;;;;;;;;;5015294;28;19917;-69
2021/05/05 02:58:45;;;;;;;;;;;;;;;;;;5018072;28;19928;-69
2021/05/05 03:01:11;;;;;;;;;;;;;;;;;;5016521;28;19917;-70
2021/05/05 03:03:37;;;;;;;;;;;;;;;;;;5021741;28;19918;-68
2021/05/05 03:06:03;;;;;;;;;;;;;;;;;;5017364;28;20283;-66
2021/05/05 03:08:29;;;;;;;;;;;;;;;;;;5004190;28;20393;-70
2021/05/05 03:10:55;;;;;;;;;;;;;;;;;;5023759;28;20003;-67
2021/05/05 03:13:21;;;;;;;;;;;;;;;;;;5025140;28;19955;-68
2021/05/05 03:15:47;;;;;;;;;;;;;;;;;;5015741;28;19917;-69
2021/05/05 03:18:13;;;;;;;;;;;;;;;;;;5017862;28;20262;-69
2021/05/05 03:20:39;;;;;;;;;;;;;;;;;;5017201;28;19995;-68
2021/05/05 03:23:04;;;;;;;;;;;;;;;;;;5023838;28;20287;-68
2021/05/05 03:25:30;;;;;;;;;;;;;;;;;;5000091;28;20379;-69
2021/05/05 03:27:56;;;;;;;;;;;;;;;;;;5020223;28;19963;-67
2021/05/05 03:30:22;;;;;;;;;;;;;;;;;;5021004;28;20373;-69
2021/05/05 03:32:48;;;;;;;;;;;;;;;;;;5018804;28;20025;-69
2021/05/05 03:35:14;;;;;;;;;;;;;;;;;;5023972;28;19913;-70
2021/05/05 03:37:40;;;;;;;;;;;;;;;;;;5026824;28;20375;-70
2021/05/05 03:40:06;;;;;;;;;;;;;;;;;;5024193;28;19959;-70
2021/05/05 03:42:32;;;;;;;;;;;;;;;;;;5016452;28;19910;-68
2021/05/05 03:44:58;;;;;;;;;;;;;;;;;;5022326;28;19909;-67
2021/05/05 03:47:24;;;;;;;;;;;;;;;;;;5025245;28;19921;-67
2021/05/05 03:49:50;;;;;;;;;;;;;;;;;;5019450;28;19921;-69
2021/05/05 03:52:15;;;;;;;;;;;;;;;;;;5024055;28;19913;-69
2021/05/05 03:54:41;;;;;;;;;;;;;;;;;;5005977;28;19924;-68
2021/05/05 03:57:07;;;;;;;;;;;;;;;;;;5021335;28;20232;-71
2021/05/05 03:59:33;;;;;;;;;;;;;;;;;;5020786;28;19909;-70
2021/05/05 04:01:59;;;;;;;;;;;;;;;;;;5013768;28;19913;-69
2021/05/05 04:04:25;;;;;;;;;;;;;;;;;;5028694;28;20378;-69
2021/05/05 04:06:51;;;;;;;;;;;;;;;;;;5019807;28;20044;-65
2021/05/05 04:09:17;;;;;;;;;;;;;;;;;;5024132;28;20415;-67
2021/05/05 04:11:43;;;;;;;;;;;;;;;;;;5021610;28;20356;-71
2021/05/05 04:14:09;;;;;;;;;;;;;;;;;;5004206;28;19996;-71
2021/05/05 04:16:35;;;;;;;;;;;;;;;;;;5024751;28;20292;-69
2021/05/05 04:19:01;;;;;;;;;;;;;;;;;;5028762;28;19912;-69
2021/05/05 04:21:27;;;;;;;;;;;;;;;;;;5018576;28;20371;-67
2021/05/05 04:23:53;;;;;;;;;;;;;;;;;;5025130;28;19958;-69
2021/05/05 04:26:19;;;;;;;;;;;;;;;;;;5021266;28;19992;-70
2021/05/05 04:28:45;;;;;;;;;;;;;;;;;;5025387;28;19925;-69
2021/05/05 04:31:11;;;;;;;;;;;;;;;;;;5015418;28;20316;-69
2021/05/05 04:33:37;;;;;;;;;;;;;;;;;;5022480;28;20004;-68
2021/05/05 04:36:03;;;;;;;;;;;;;;;;;;5022482;28;19916;-68
2021/05/05 04:38:29;;;;;;;;;;;;;;;;;;5026865;28;19931;-73
2021/05/05 04:40:55;;;;;;;;;;;;;;;;;;5010673;28;19917;-72
2021/05/05 04:43:21;;;;;;;;;;;;;;;;;;5012110;28;19912;-73
2021/05/05 04:45:47;;;;;;;;;;;;;;;;;;5008526;28;19941;-73
2021/05/05 04:48:13;;;;;;;;;;;;;;;;;;4998594;28;19964;-73
2021/05/05 04:50:39;;;;;;;;;;;;;;;;;;5010880;28;20351;-73
2021/05/05 04:53:05;;;;;;;;;;;;;;;;;;4996824;28;19913;-73
2021/05/05 04:55:31;;;;;;;;;;;;;;;;;;5011667;28;20378;-73
2021/05/05 04:57:57;;;;;;;;;;;;;;;;;;4999016;28;19913;-73
2021/05/05 05:00:22;;;;;;;;;;;461.40;1510.40;;;;;;5002220;28;19910;-73
2021/05/05 05:02:48;;;;;;;;;;;461.30;1510.40;;;;;;5003337;28;19909;-73
2021/05/05 05:05:14;;;;;;;;;;;461.40;1484.80;;;;;;5007047;28;19917;-73
2021/05/05 05:07:40;;;;;;;;;;;;;;;;;;5005665;28;19913;-73
2021/05/05 05:10:05;;;;;;;;;;;;;;;;;;5001888;28;20326;-73
2021/05/05 05:12:31;;;;;;;;;;;;;;;;;;5012964;28;20315;-73
2021/05/05 05:14:57;;;;;;;;;;;;;;;;;;5004239;28;19913;-70
2021/05/05 05:17:23;;;;;;;;;;;;;;;;;;5007391;28;19906;-71
2021/05/05 05:19:49;;;;;;;;;;;;;;;;;;5004310;28;19912;-70
2021/05/05 05:22:15;;;;;;;;;;;;;;;;;;4994659;28;19921;-70
2021/05/05 05:24:41;;;;;;;;;;;;;;;;;;4993939;28;19922;-70
2021/05/05 05:27:07;;;;;;;;;;;;;;;;;;4987497;28;20387;-70
2021/05/05 05:29:33;;;;;;;;;;;;;;;;;;4994138;28;19921;-70
2021/05/05 05:31:59;;;;;;;;;;;;;;;;;;4982352;28;20308;-70
2021/05/05 05:34:25;;;;;;;;;;;;;;;;;;4991347;28;19918;-69
2021/05/05 05:36:51;;;;;;;;;;;;;;;;;;4992350;28;19906;-70
2021/05/05 05:39:17;;;;;;;;;;;;;;;;;;5000311;28;19917;-70
2021/05/05 05:41:43;;;;;;;;;;;;;;;;;;4994586;28;19952;-70
2021/05/05 05:44:09;;;;;;;;;;;;;;;;;;4994761;28;19905;-71
2021/05/05 05:46:38;;;;;;;;;;;;;;;;;;4994959;28;19921;-70
2021/05/05 05:49:04;;;;;;;;;;;;;;;;;;4993819;28;19924;-69
2021/05/05 05:51:30;;;;;;;;;;;;;;;;;;4995689;28;19913;-70
2021/05/05 05:53:56;;;;;;;;;;;;;;;;;;4994081;28;20372;-70
2021/05/05 05:56:22;;;;;;;;;;;;;;;;;;4996376;28;20035;-69
2021/05/05 05:58:48;;;;;;;;;;;;;;;;;;5003411;28;20403;-68
2021/05/05 06:01:13;;;;;;;;;;;;;;;;;;4989707;28;20000;-73
2021/05/05 06:03:39;;;;;;;;;;;;;;;;;;4984626;28;19910;-73
2021/05/05 06:06:05;;;;;;;;;;;;;;;;;;4992259;28;19909;-72
2021/05/05 06:08:31;;;;;;;;;;;;;;;;;;4985330;28;19918;-72
2021/05/05 06:10:58;;;;;;;;;;;;;;;;;;4994930;28;19910;-72
2021/05/05 06:13:24;;;;;;;;;;;;;;;;;;4974083;28;19914;-72
2021/05/05 06:15:50;;;;;;;;;;;;;;;;;;4988771;28;19917;-72
2021/05/05 06:18:16;;;;;;;;;;;;;;;;;;4977537;28;19916;-72
2021/05/05 06:20:42;;;;;;;;;;;;;;;;;;4990284;28;19905;-72
2021/05/05 06:23:08;;;;;;;;;;;538.00;1126.40;;;;;;5008446;28;20004;-72
2021/05/05 06:25:34;;;;;;;;;;;537.80;1126.40;;;;;;5012626;28;20344;-73
2021/05/05 06:27:59;;;;;;;;;;;537.70;1126.40;;;;;;5004486;28;19968;-71
2021/05/05 06:30:25;;;;;;;;;;;537.70;1126.40;;;;;;5010561;28;19952;-71
2021/05/05 06:32:50;;;;;;;;;;;537.80;1152.00;;;;;;5008820;28;19964;-70
2021/05/05 06:35:16;;;;;;;;;;;;;;;;;;4989472;28;19944;-70
2021/05/05 06:37:42;;;;;;;;;;;;;;;;;;5012161;28;19955;-71
2021/05/05 06:40:08;;;;;;;;;;;;;;;;;;5009202;28;19905;-70
2021/05/05 06:42:35;;;;;;;;;;;;;;;;;;5010616;28;20413;-71
2021/05/05 06:45:01;;;;;;;;;;;;;;;;;;5008783;28;20000;-71
2021/05/05 06:47:26;;;;;;;;;;;;;;;;;;4996431;28;20340;-73
2021/05/05 06:49:52;;;;;;;;;;;;;;;;;;5008614;28;19914;-70
2021/05/05 06:52:18;;;;;;;;;;;;;;;;;;5011830;28;20275;-70
2021/05/05 06:54:44;;;;;;;;;;;;;;;;;;5011687;28;20387;-68
2021/05/05 06:57:10;;;;;;;;;;;;;;;;;;5001944;28;19914;-69
2021/05/05 06:59:36;;;;;;;;;;;;;;;;;;5007912;28;19910;-67
2021/05/05 07:02:02;;;;;;;;;;;;;;;;;;5009322;28;19917;-68
2021/05/05 07:04:28;;;;;;;;;;;;;;;;;;5006040;28;19913;-69
2021/05/05 07:06:55;;;;;;;;;;;;;;;;;;5008135;28;20257;-69
2021/05/05 07:09:20;;;;;;;;;;;;;;;;;;5004686;28;19927;-68
2021/05/05 07:11:46;;;;;;;;;;;;;;;;;;5002328;28;20004;-68
2021/05/05 07:14:12;;;;;;;;;;;;;;;;;;5011547;28;19988;-68
2021/05/05 07:16:38;;;;;;;;;;;;;;;;;;4998963;28;20461;-67
2021/05/05 07:19:04;;;;;;;;;;;;;;;;;;5006236;28;20379;-68
2021/05/05 07:21:30;;;;;;;;;;;;;;;;;;5001982;28;19925;-69
2021/05/05 07:23:56;;;;;;;;;;;;;;;;;;4982036;28;19914;-69
2021/05/05 07:26:22;;;;;;;;;;;;;;;;;;5009861;28;20383;-69
2021/05/05 07:28:48;;;;;;;;;;;;;;;;;;5010716;28;19917;-69
2021/05/05 07:31:14;;;;;;;;;;;;;;;;;;4994816;28;19912;-67
2021/05/05 07:33:40;;;;;;;;;;;;;;;;;;5008502;28;19909;-67
2021/05/05 07:36:12;;;;;;;;;;;;;;;;;;5008025;28;19972;-67
2021/05/05 07:49:00;;;;;;;;;;;;;;;;;;4962968;28;19919;-68
2021/05/05 07:51:26;;;;;;;;;;;;;;;;;;4967181;28;20357;-73
2021/05/05 07:53:52;;;;;;;;;;;;;;;;;;4955640;28;20021;-67
2021/05/05 07:56:18;;;;;;;;;;;;;;;;;;4949447;28;20013;-74
2021/05/05 07:58:45;;;;;;;;;;;;;;;;;;4950400;28;19914;-72
2021/05/05 08:01:11;;;;;;;;;;;;;;;;;;4960204;28;19946;-71
2021/05/05 08:03:37;;;;;;;;;;;;;;;;;;4966076;28;20399;-71
2021/05/05 08:06:03;;;;;;;;;;;;;;;;;;4965895;28;19907;-68
2021/05/05 08:08:29;;;;;;;;;;;;;;;;;;4960162;28;19918;-67
2021/05/05 08:10:55;;;;;;;;;;;;;;;;;;4964609;28;20373;-68
2021/05/05 08:13:21;;;;;;;;;;;;;;;;;;4954708;28;19918;-68
2021/05/05 08:15:47;;;;;;;;;;;;;;;;;;4949255;28;19917;-72
2021/05/05 08:18:13;;;;;;;;;;;;;;;;;;4955922;28;19910;-68
2021/05/05 08:20:39;;;;;;;;;;;;;;;;;;4967620;28;19910;-66
2021/05/05 08:23:05;;;;;;;;;;;;;;;;;;4968932;28;19937;-73
2021/05/05 08:25:31;;;;;;;;;;;;;;;;;;5012401;28;19913;-68
2021/05/05 08:27:57;;;;;;;;;;;;;;;;;;4998964;28;19909;-69
2021/05/05 08:30:23;;;;;;;;;;;;;;;;;;5004072;28;20402;-67
2021/05/05 08:32:49;;;;;;;;;;;;;;;;;;5010588;28;19959;-70
2021/05/05 08:35:15;;;;;;;;;;;;;;;;;;5010957;28;19905;-71
2021/05/05 08:37:41;;;;;;;;;;;;;;;;;;5008602;28;20415;-70
2021/05/05 08:40:07;;;;;;;;;;;;;;;;;;5008951;28;19928;-70
2021/05/05 08:42:33;;;;;;;;;;;;;;;;;;5014426;28;19909;-72
2021/05/05 08:44:59;;;;;;;;;;;;;;;;;;5013078;28;19996;-71
2021/05/05 08:47:25;;;;;;;;;;;;;;;;;;4997811;28;20331;-72
2021/05/05 08:49:51;;;;;;;;;;;;;;;;;;5016040;28;19913;-72
2021/05/05 08:52:17;;;;;;;;;;;;;;;;;;5016300;28;20372;-73
2021/05/05 08:54:43;;;;;;;;;;;;;;;;;;5009716;28;19913;-70
2021/05/05 08:57:09;;;;;;;;;;;;;;;;;;5013180;28;19916;-71
2021/05/05 08:59:35;;;;;;;;;;;;;;;;;;5014801;28;19909;-68
2021/05/05 09:02:01;;;;;;;;;;;;;;;;;;5014999;28;19905;-68
2021/05/05 09:04:27;;;;;;;;;;;;;;;;;;5015816;28;19912;-70
2021/05/05 09:06:53;;;;;;;;;;;;;;;;;;5015891;28;20080;-69
2021/05/05 09:09:19;;;;;;;;;;;;;;;;;;5014803;28;19931;-73
2021/05/05 09:11:45;;;;;;;;;;;640.50;742.40;;;;;;5013660;28;19916;-73
2021/05/05 09:14:11;;;;;;;;;;;640.40;742.40;;;;;;5015241;28;19917;-72
2021/05/05 09:16:37;;;;;;;;;;;640.60;768.00;;;;;;5010784;28;19964;-73
2021/05/05 09:19:07;;;;;;;;;;;640.60;793.60;;;;;;5010380;28;19917;-71
2021/05/05 09:21:32;;;;;;;;;;;640.90;716.80;;;;;;5010855;28;19928;-72
2021/05/05 09:24:18;;;;;;;;;;;640.90;716.80;;;;;;5008702;28;19913;-72
2021/05/05 09:26:45;;;;;;;;;;;640.80;742.40;;;;;;5012730;28;19909;-70
2021/05/05 09:29:11;;;;;;;;;;;;;;;;;;5009183;28;19924;-68
2021/05/05 09:31:37;;;;;;;;;;;;;;;;;;4989333;28;19906;-68
2021/05/05 09:34:03;;;;;;;;;;;;;;;;;;5005325;28;19913;-67
2021/05/05 09:36:29;;;;;;;;;;;691.20;716.80;;;;;;5011401;28;19910;-69
2021/05/05 09:38:55;;;;;;;;;;;;;;;;;;5014949;28;20390;-73
2021/05/05 09:41:21;;;;;;;;;;;;;;;;;;5014673;28;19959;-72
2021/05/05 09:43:47;;;;;;;;;;;;;;;;;;5015095;28;20000;-69
2021/05/05 09:46:13;;;;;;;;;;;;;;;;;;5015363;28;19992;-73
2021/05/05 09:48:39;;;;;;;;;;;;;;;;;;5013882;28;20438;-72
2021/05/05 09:51:05;;;;;;;;;;;;;;;;;;5010159;28;20024;-71
2021/05/05 09:53:32;;;;;;;;;;;;;;;;;;5014992;28;19959;-73
2021/05/05 09:55:58;;;;;;;;;;;;;;;;;;5012451;28;19906;-73
2021/05/05 09:58:24;;;;;;;;;;;;;;;;;;5000412;28;19920;-73
2021/05/05 10:00:50;;;;;;;;;;;;;;;;;;5007049;28;19909;-73
2021/05/05 10:03:16;;;;;;;;;;;;;;;;;;5008803;28;19913;-73
2021/05/05 10:05:42;;;;;;;;;;;;;;;;;;5010542;28;19913;-73
2021/05/05 10:08:09;;;;;;;;;;;;;;;;;;5006417;28;19910;-74
2021/05/05 10:10:35;;;;;;;;;;;;;;;;;;5011051;28;19909;-74
2021/05/05 10:13:01;;;;;;;;;;;;;;;;;;5006800;28;19906;-73
2021/05/05 10:15:27;;;;;;;;;;;742.50;665.60;;;;;;4996844;28;20000;-72
2021/05/05 10:17:53;;;;;;;;;;;;;;;;;;5007455;28;19916;-73
2021/05/05 10:20:19;;;;;;;;;;;;;;;;;;5003450;28;19910;-72
2021/05/05 10:22:45;;;;;;;;;;;;;;;;;;5001593;28;20359;-71
2021/05/05 10:25:11;;;;;;;;;;;;;;;;;;5000742;28;19909;-72
2021/05/05 10:27:37;;;;;;;;;;;;;;;;;;5008659;28;19909;-72
2021/05/05 10:30:03;;;;;;;;;;;;;;;;;;5000949;28;19917;-70
2021/05/05 10:32:32;;;;;;;;;;;;;;;;;;5000218;28;19909;-72
2021/05/05 10:34:58;;;;;;;;;;;;;;;;;;5004809;28;20279;-71
2021/05/05 10:37:24;;;;;;;;;;;;;;;;;;5011501;28;19923;-72
2021/05/05 10:39:50;;;;;;;;;;;;;;;;;;5003520;28;20407;-73
2021/05/05 10:42:18;;;;;;;;;;;742.90;665.60;;;;;;4985668;28;20051;-71
2021/05/05 10:44:44;;;;;;;;;;;;;;;;;;5012962;28;19952;-73
2021/05/05 10:47:10;;;;;;;;;;;;;;;;;;5013921;28;19913;-73
2021/05/05 10:49:36;;;;;;;;;;;;;;;;;;4992161;28;20337;-74
2021/05/05 10:52:03;;;;;;;;;;;;;;;;;;5012595;28;20379;-74
2021/05/05 10:54:29;;;;;;;;;;;;;;;;;;5007386;28;19913;-73
2021/05/05 10:56:54;;;;;;;;;;;;;;;;;;5004256;28;20327;-72
2021/05/05 10:59:25;;;;;;;;;;;;;;;;;;5005865;28;19910;-73
2021/05/05 11:01:51;;;;;;;;;;;;;;;;;;5008397;28;19916;-76
2021/05/05 11:04:16;;;;;;;;;;;;;;;;;;5009359;28;19917;-76
2021/05/05 11:06:42;;;;;;;;;;;;;;;;;;5002693;28;19912;-76
2021/05/05 11:09:08;;;;;;;;;;;;;;;;;;5005095;28;19917;-82
2021/05/05 11:11:34;;;;;;;;;;;;;;;;;;4992928;28;19955;-75
2021/05/05 11:14:00;;;;;;;;;;;;;;;;;;5005050;28;19966;-73
2021/05/05 11:16:26;;;;;;;;;;;;;;;;;;5004187;28;19909;-77
2021/05/05 11:18:52;;;;;;;;;;;;;;;;;;4994287;28;19916;-73
2021/05/05 11:21:18;;;;;;;;;;;;;;;;;;5001630;28;19921;-72
2021/05/05 11:23:47;;;;;;;;;;;;;;;;;;4996634;28;19914;-78
2021/05/05 11:26:13;;;;;;;;;;;;;;;;;;4985084;28;19906;-75
2021/05/05 11:28:39;;;;;;;;;;;;;;;;;;4984932;28;20269;-75
2021/05/05 11:31:05;;;;;;;;;;;;;;;;;;4981772;28;20070;-74
2021/05/05 11:33:31;;;;;;;;;;;;;;;;;;4982792;28;19961;-74
2021/05/05 11:35:57;;;;;;;;;;;;;;;;;;4981596;28;20423;-74
2021/05/05 11:38:23;;;;;;;;;;;;;;;;;;4993570;28;19945;-74
2021/05/05 11:40:49;;;;;;;;;;;;;;;;;;4992415;28;19913;-72
2021/05/05 11:43:15;;;;;;;;;;;;;;;;;;4993221;28;19914;-73
2021/05/05 11:45:41;;;;;;;;;;;;;;;;;;4986706;28;19906;-74
2021/05/05 11:48:07;;;;;;;;;;;;;;;;;;4989834;28;20440;-76
2021/05/05 11:50:33;;;;;;;;;;;;;;;;;;4987448;28;19917;-74
2021/05/05 11:52:59;;;;;;;;;;;;;;;;;;4993336;28;19917;-76
2021/05/05 11:55:30;;;;;;;;;;;;;;;;;;4988931;28;19906;-75
2021/05/05 11:57:56;;;;;;;;;;;;;;;;;;4978227;28;19922;-74
2021/05/05 12:00:22;;;;;;;;;;;;;;;;;;4980108;28;20333;-76
2021/05/05 12:02:48;;;;;;;;;;;;;;;;;;4981629;28;19961;-74
2021/05/05 12:05:14;;;;;;;;;;;;;;;;;;4983787;28;19905;-73
2021/05/05 12:07:40;;;;;;;;;;;;;;;;;;4967625;28;19909;-75
2021/05/05 12:10:06;;;;;;;;;;;;;;;;;;4983303;28;19914;-75
2021/05/05 12:12:32;;;;;;;;;;;;;;;;;;4987810;28;19909;-75
2021/05/05 12:14:57;;;;;;;;;;;;;;;;;;4987555;28;19905;-76
2021/05/05 12:17:29;;;;;;;;;;;;;;;;;;4989833;28;19913;-76
2021/05/05 12:19:55;;;;;;;;;;;;;;;;;;4986692;28;19914;-74
2021/05/05 12:22:20;;;;;;;;;;;;;;;;;;5017671;28;19971;-75
2021/05/05 12:24:46;;;;;;;;;;;;;;;;;;5025206;28;19909;-75
2021/05/05 12:27:12;;;;;;;;;;;;;;;;;;5012163;28;19928;-76
2021/05/05 12:29:38;;;;;;;;;;;;;;;;;;5019722;28;19935;-75
2021/05/05 12:32:06;;;;;;;;;;;;;;;;;;5027204;28;19916;-74
2021/05/05 12:34:32;;;;;;;;;;;;;;;;;;5026535;28;19905;-75
2021/05/05 12:37:00;;;;;;;;;;;;;;;;;;5013221;28;19909;-73
2021/05/05 12:39:26;;;;;;;;;;;;;;;;;;5024722;28;19996;-77
2021/05/05 12:41:52;;;;;;;;;;;;;;;;;;5012603;28;20017;-76
2021/05/05 12:44:19;;;;;;;;;;;;;;;;;;5004040;28;20045;-75
2021/05/05 12:49:43;;;;;;;;;;;;;;;;;;4963466;28;19949;-74
2021/05/05 12:52:09;;;;;;;;;;;;;;;;;;4949340;28;19922;-74
2021/05/05 12:54:45;;;;;;;;;;;;;;;;;;4954130;28;20005;-77
2021/05/05 12:57:11;;;;;;;;;;;;;;;;;;4957363;28;20355;-74
2021/05/05 12:59:37;;;;;;;;;;;;;;;;;;4958800;28;19907;-72
2021/05/05 13:02:03;;;;;;;;;;;;;;;;;;4958064;28;19994;-76
2021/05/05 13:04:28;;;;;;;;;;;;;;;;;;4950955;28;19997;-74
2021/05/05 13:06:54;;;;;;;;;;;;;;;;;;4952912;28;19921;-75
2021/05/05 13:09:21;;;;;;;;;;;;;;;;;;4956833;28;19926;-73
2021/05/05 13:11:50;;;;;;;;;;;;;;;;;;4951193;28;19920;-72
2021/05/05 13:14:21;;;;;;;;;;;;;;;;;;4959975;28;20392;-72
2021/05/05 13:30:52;;;;;;;;;;;742.60;640.00;;;;;;4941215;29;20013;-71
2021/05/05 13:33:18;;;;;;;;;;;;;;;;;;4934555;28;19981;-72
2021/05/05 13:35:45;;;;;;;;;;;;;;;;;;4949183;28;19920;-72
2021/05/05 13:38:11;;;;;;;;;;;;;;;;;;4931161;29;19933;-72
2021/05/05 13:40:37;;;;;;;;;;;;;;;;;;4940077;29;20001;-73
2021/05/05 13:43:06;;;;;;;;;;;;;;;;;;4940369;29;19914;-73
2021/05/05 13:45:35;;;;;;;;;;;;;;;;;;4933960;29;19917;-77
2021/05/05 13:50:45;;;;;;;;;;;;;;;;;;4934962;29;19926;-73
2021/05/05 13:53:11;;;;;;;;;;;;;;;;;;4935141;29;19911;-74
2021/05/05 13:55:37;;;;;;;;;;;;;;;;;;4932592;29;19907;-81
2021/05/05 13:58:03;;;;;;;;;;;;;;;;;;4925432;29;19930;-74
2021/05/05 14:00:29;;;;;;;;;;;;;;;;;;4936838;29;19914;-76
2021/05/05 14:02:55;;;;;;;;;;;;;;;;;;4950958;28;19945;-77
2021/05/05 14:05:22;;;;;;;;;;;;;;;;;;4992971;28;19918;-76
2021/05/05 14:07:48;;;;;;;;;;;;;;;;;;5012254;28;19910;-78
2021/05/05 14:10:14;;;;;;;;;;;;;;;;;;5014051;28;20674;-81
2021/05/05 14:12:40;;;;;;;;;;;;;;;;;;5014838;28;19906;-80
2021/05/05 14:15:06;;;;;;;;;;;;;;;;;;5014841;28;19906;-78
2021/05/05 14:17:37;;;;;;;;;;;;;;;;;;5015090;28;19912;-78
2021/05/05 14:20:03;;;;;;;;;;;;;;;;;;5014462;28;19916;-78
2021/05/05 14:22:29;;;;;;;;;;;;;;;;;;5014514;28;20438;-78
2021/05/05 14:24:55;;;;;;;;;;;;;;;;;;5014260;28;19992;-78
2021/05/05 14:27:21;;;;;;;;;;;;;;;;;;5011430;28;19951;-78
2021/05/05 14:29:47;;;;;;;;;;;;;;;;;;5014391;28;19960;-78
2021/05/05 14:32:13;;;;;;;;;;;;;;;;;;5014746;28;19913;-77
2021/05/05 14:34:38;;;;;;;;;;;;;;;;;;5013957;28;19952;-73
2021/05/05 14:37:05;;;;;;;;;;;;;;;;;;5014311;28;19905;-77
2021/05/05 14:39:30;;;;;;;;;;;;;;;;;;5014399;28;20385;-76
2021/05/05 14:41:56;;;;;;;;;;;;;;;;;;5014596;28;19995;-76
2021/05/05 14:44:28;;;;;;;;;;;;;;;;;;5014296;28;19956;-75
2021/05/05 14:49:39;;;;;;;;;;;;;;;;;;5014146;28;19920;-76
2021/05/05 14:52:05;;;;;;;;;;;;;;;;;;5009120;28;19909;-77
2021/05/05 14:54:31;;;;;;;;;;;;;;;;;;5015316;28;19905;-77
2021/05/05 14:56:57;;;;;;;;;;;;;;;;;;5005340;28;19905;-77
2021/05/05 14:59:23;;;;;;;;;;;;;;;;;;5009015;28;19921;-77
2021/05/05 15:01:49;;;;;;;;;;;;;;;;;;5014119;28;19906;-76
2021/05/05 15:04:15;;;;;;;;;;;;;;;;;;5014001;28;19905;-78
2021/05/05 15:06:45;;;;;;;;;;;;;;;;;;5003196;28;19916;-65
2021/05/05 15:28:02;;;;;;;;;;;;;;;;;;5013663;28;20402;-66
2021/05/05 15:41:02;;;;;;;;;;;666.10;716.80;;;;;;5013656;28;20409;-64
2021/05/05 15:48:19;;;;;;;;;;;665.90;716.80;;;;;;5013487;28;20003;-63
2021/05/05 15:50:48;;;;;;;;;;;665.90;716.80;;;;;;5013091;28;20260;-64
2021/05/05 15:53:21;;;;;;;;;;;665.80;716.80;;;;;;5013182;28;19916;-67
2021/05/05 15:55:58;;;;;;;;;;;665.70;716.80;;;;;;5013161;28;19905;-67
2021/05/05 15:58:26;;;;;;;;;;;665.70;716.80;;;;;;5002293;28;20406;-68
2021/05/05 16:01:13;;;;;;;;;;;665.70;716.80;;;;;;5013454;28;19909;-65
2021/05/05 16:16:35;;;;;;;;;;;665.70;742.40;;;;;;5012601;28;19960;-64
2021/05/05 16:19:04;;;;;;;;;;;640.90;716.80;;;;;;5012846;28;19906;-66
2021/05/05 16:21:37;;;;;;;;;;;640.90;716.80;;;;;;5012797;28;19952;-65
2021/05/05 16:45:58;;;;;;;;;;;640.10;793.60;;;;;;5012448;28;19960;-65
2021/05/05 16:48:23;;;;;;;;;;;640.10;793.60;;;;;;5012407;28;19957;-67
2021/05/05 17:01:22;;;;;;;;;;;615.10;793.60;;;;;;5016335;28;19928;-66
2021/05/05 17:11:49;;;;;;;;;;;614.80;793.60;;;;;;4936749;29;19906;-67
2021/05/05 17:14:15;;;;;;;;;;;;;;;;;;4936494;29;20396;-66
2021/05/05 17:16:41;;;;;;;;;;;614.70;844.80;;;;;;4936386;29;19911;-65
2021/05/05 17:19:26;;;;;;;;;;;614.60;819.20;;;;;;4936205;29;19907;-65
2021/05/05 17:21:55;;;;;;;;;;;614.60;844.80;;;;;;4935691;29;19925;-67
2021/05/05 17:24:41;;;;;;;;;;;614.60;844.80;;;;;;4936244;29;19914;-64
2021/05/05 17:27:12;;;;;;;;;;;;;;;;;;4936074;29;19911;-67
2021/05/05 17:38:18;;;;;;;;;;;;;;;;;;4916994;29;19942;-63
2021/05/05 17:44:33;;;;;;;;;;;589.60;896.00;;;;;;4961606;28;19956;-66
2021/05/05 17:47:20;;;;;;;;;;;589.50;896.00;;;;;;4992842;28;19921;-65
2021/05/05 18:14:17;;;;;;;;;;;;;;;;;;4973925;28;20370;-65
2021/05/05 18:16:51;;;;;;;;;;;;;;;;;;4973709;28;19956;-65
2021/05/05 18:19:24;;;;;;;;;;;;;;;;;;4973980;28;20053;-65
2021/05/05 18:24:32;;;;;;;;;;;;;;;;;;4973596;28;19910;-65
2021/05/05 18:29:46;;;;;;;;;;;;;;;;;;4996045;28;19920;-67
2021/05/05 18:32:12;;;;;;;;;;;;;;;;;;4992429;28;19941;-67
2021/05/05 18:34:40;;;;;;;;;;;;;;;;;;5001304;28;20360;-67
2021/05/05 18:37:06;;;;;;;;;;;;;;;;;;5004011;28;19960;-69
2021/05/05 18:39:38;;;;;;;;;;;;;;;;;;5014598;28;19905;-67